FW2156 Weather Reports


Display with metric or nautical units.
time (UTC)temp
F
wind
direction
speed
MPH
gust
MPH
rain 1hr
in
rain 24hr
in
rain mn
in
humidity
%
barometer
mb
20210422234524 30 16 4.0 7.0 0.00 0.00 0.00 54 1014.9
20210422234020 30 4 1.0 3.0 0.00 0.00 0.00 55 1014.9
20210422233513 30 5 1.0 3.0 0.00 0.00 0.00 55 1014.9
20210422233014 30 351 3.0 5.0 0.00 0.00 0.00 57 1014.9
20210422232514 30 35 1.0 3.0 0.00 0.00 0.00 57 1015.2
20210422232013 30 252 0.0 0.0 0.00 0.00 0.00 56 1014.9
20210422231516 31 52 2.0 3.0 0.00 0.00 0.00 56 1014.9
20210422231013 31 328 6.0 7.0 0.00 0.00 0.00 54 1014.9
20210422230514 31 59 0.0 3.0 0.00 0.00 0.00 55 1014.9
20210422230015 32 42 4.0 7.0 0.00 0.00 0.00 54 1014.9
20210422225512 32 7 4.0 5.0 0.00 0.00 0.00 54 1014.9
20210422225016 31 54 5.0 5.0 0.00 0.00 0.00 53 1014.9
20210422224514 31 2 1.0 3.0 0.00 0.00 0.00 53 1014.9
20210422224020 31 322 10.0 12.0 0.00 0.00 0.00 52 1015.2
20210422223514 31 300 3.0 5.0 0.00 0.00 0.00 54 1014.9
20210422223017 30 73 5.0 7.0 0.00 0.00 0.00 52 1015.2
20210422222517 30 331 3.0 5.0 0.00 0.00 0.00 50 1014.9
20210422222021 30 42 3.0 5.0 0.00 0.00 0.00 50 1014.9
20210422221516 30 57 1.0 5.0 0.00 0.00 0.00 53 1015.2
20210422221017 30 359 2.0 5.0 0.00 0.00 0.00 53 1015.2
20210422220415 30 327 0.0 3.0 0.00 0.00 0.00 55 1015.6
20210422215909 30 96 3.0 5.0 0.00 0.00 0.00 52 1015.2
20210422215412 30 347 11.0 12.0 0.00 0.00 0.00 51 1015.2
20210422214913 30 327 3.0 5.0 0.00 0.00 0.00 52 1015.2
20210422214413 30 0 7.0 10.0 0.00 0.00 0.00 52 1015.2
20210422213911 29 251 0.0 3.0 0.00 0.00 0.00 53 1015.2
20210422213410 29 326 8.0 10.0 0.00 0.00 0.00 53 1015.2
20210422212915 29 91 1.0 3.0 0.00 0.00 0.00 53 1015.2
20210422212412 29 141 0.0 0.0 0.00 0.00 0.00 54 1015.2
20210422211847 29 291 5.0 7.0 0.00 0.00 0.00 53 1015.2
20210422211342 29 5 3.0 5.0 0.00 0.00 0.00 55 1015.2
20210422210837 29 322 3.0 5.0 0.00 0.00 0.00 56 1015.2
20210422210413 29 349 3.0 5.0 0.00 0.00 0.00 57 1015.2
20210422205912 29 324 3.0 5.0 0.00 0.00 0.00 56 1015.2
20210422205436 29 29 3.0 5.0 0.00 0.00 0.00 56 1015.6
20210422204945 29 33 2.0 5.0 0.00 0.00 0.00 56 1015.2
20210422204515 29 310 7.0 10.0 0.00 0.00 0.00 56 1015.2
20210422204024 29 332 4.0 7.0 0.00 0.00 0.00 59 1015.2
20210422203542 29 324 5.0 7.0 0.00 0.00 0.00 60 1015.2
20210422203048 29 7 2.0 3.0 0.00 0.00 0.00 60 1015.2
20210422202520 28 320 3.0 3.0 0.00 0.00 0.00 62 1015.2
20210422202020 28 331 3.0 5.0 0.00 0.00 0.00 65 1015.2
20210422201516 28 287 0.0 0.0 0.00 0.00 0.00 65 1015.2
20210422201012 28 18 0.0 0.0 0.00 0.00 0.00 63 1015.2
20210422200512 28 315 0.0 3.0 0.00 0.00 0.00 61 1015.2
20210422200016 28 330 4.0 5.0 0.00 0.00 0.00 62 1015.2
20210422195539 28 311 0.0 0.0 0.00 0.00 0.00 63 1015.2
20210422195113 28 356 4.0 5.0 0.00 0.00 0.00 61 1015.2
20210422194616 28 301 3.0 5.0 0.00 0.00 0.00 60 1015.2
20210422194114 28 359 4.0 5.0 0.00 0.00 0.00 61 1015.2
20210422193612 28 327 3.0 7.0 0.00 0.00 0.00 61 1015.2
20210422193112 28 89 2.0 3.0 0.00 0.00 0.00 61 1015.2
20210422192612 28 10 0.0 3.0 0.00 0.00 0.00 63 1015.2
20210422192110 28 270 2.0 3.0 0.00 0.00 0.00 62 1015.2
20210422191611 28 331 5.0 7.0 0.00 0.00 0.00 62 1015.6
20210422191038 27 350 2.0 3.0 0.00 0.00 0.00 62 1015.6
20210422190540 27 347 2.0 3.0 0.00 0.00 0.00 62 1015.6
20210422190041 27 306 2.0 3.0 0.00 0.00 0.00 65 1015.6
20210422185537 27 329 7.0 7.0 0.00 0.00 0.00 64 1015.6
20210422185112 27 336 3.0 5.0 0.00 0.00 0.00 64 1015.6
20210422184613 27 14 3.0 5.0 0.00 0.00 0.00 64 1015.6
20210422184113 26 312 1.0 3.0 0.00 0.00 0.00 66 1015.6
20210422183617 26 300 7.0 7.0 0.00 0.00 0.00 66 1015.6
20210422183141 26 284 0.0 3.0 0.00 0.00 0.00 66 1015.6
20210422182636 26 275 7.0 10.0 0.00 0.00 0.00 67 1015.6
20210422182141 26 350 5.0 7.0 0.00 0.00 0.00 68 1015.6
20210422181617 26 24 1.0 3.0 0.00 0.00 0.00 68 1015.6
20210422181111 26 109 4.0 5.0 0.00 0.00 0.00 68 1015.2
20210422180611 26 5 1.0 3.0 0.00 0.00 0.00 68 1015.2
20210422180111 26 173 1.0 3.0 0.00 0.00 0.00 68 1015.6
20210422175615 26 308 11.0 12.0 0.00 0.00 0.00 67 1015.6
20210422175112 25 317 7.0 10.0 0.00 0.00 0.00 68 1015.2
20210422174616 25 301 6.0 7.0 0.00 0.00 0.00 70 1015.2
20210422174111 25 6 2.0 5.0 0.00 0.00 0.00 73 1015.2
20210422173613 25 246 0.0 3.0 0.00 0.00 0.00 75 1015.2
20210422173116 25 0 4.0 7.0 0.00 0.00 0.00 75 1015.2
20210422172615 25 319 6.0 10.0 0.00 0.00 0.00 76 1015.2
20210422172114 25 343 1.0 3.0 0.00 0.00 0.00 76 1015.2
20210422171613 25 299 7.0 10.0 0.00 0.00 0.00 77 1015.2
20210422171110 25 359 0.0 3.0 0.00 0.00 0.00 77 1015.2
20210422170616 25 336 3.0 5.0 0.00 0.00 0.00 76 1015.2
20210422170204 24 206 0.0 3.0 0.00 0.00 0.00 77 1015.2
20210422165614 24 291 3.0 5.0 0.00 0.00 0.00 76 1015.2
20210422165114 24 12 3.0 5.0 0.00 0.00 0.00 76 1015.2
20210422164636 24 358 1.0 3.0 0.00 0.00 0.00 76 1015.2
20210422164213 24 9 2.0 5.0 0.00 0.00 0.00 76 1015.2
20210422163710 24 15 1.0 3.0 0.00 0.00 0.00 76 1015.2
20210422163245 24 48 2.0 3.0 0.00 0.00 0.00 75 1014.9
20210422162800 25 0 4.0 7.0 0.00 0.00 0.00 74 1014.9
20210422162215 25 269 2.0 3.0 0.00 0.00 0.00 73 1014.9
20210422161758 26 9 5.0 7.0 0.00 0.00 0.00 71 1014.9
20210422161215 26 322 2.0 5.0 0.00 0.00 0.00 71 1014.9
20210422160713 26 348 3.0 5.0 0.00 0.00 0.00 70 1014.6
20210422160215 26 285 2.0 5.0 0.00 0.00 0.00 69 1014.6
20210422155713 26 17 3.0 5.0 0.00 0.00 0.00 69 1014.6
20210422155256 26 310 1.0 3.0 0.00 0.00 0.00 69 1014.6
20210422154812 26 295 4.0 5.0 0.00 0.00 0.00 69 1014.6
20210422154314 26 308 0.0 3.0 0.00 0.00 0.00 69 1014.6
20210422153814 26 19 3.0 5.0 0.00 0.00 0.00 69 1014.6
20210422153314 26 320 5.0 7.0 0.00 0.00 0.00 69 1014.2
20210422152812 26 338 13.0 17.0 0.00 0.00 0.00 68 1014.2
20210422152309 26 334 7.0 10.0 0.00 0.00 0.00 67 1014.2
20210422151811 26 324 15.0 20.0 0.00 0.00 0.00 67 1014.2
20210422151315 26 304 8.0 10.0 0.00 0.00 0.00 68 1013.9
20210422150815 26 337 10.0 12.0 0.00 0.00 0.00 67 1013.9
20210422150310 26 302 16.0 22.0 0.00 0.00 0.00 67 1013.9
20210422145908 26 306 19.0 25.0 0.00 0.00 0.00 67 1014.2
20210422145314 27 14 10.0 15.0 0.00 0.00 0.00 68 1013.9
20210422144813 27 15 6.0 10.0 0.00 0.00 0.00 68 1013.9
20210422144312 27 317 9.0 12.0 0.00 0.00 0.00 68 1013.9
20210422143813 27 333 8.0 15.0 0.00 0.00 0.00 68 1013.5
20210422143316 27 335 11.0 12.0 0.00 0.00 0.00 68 1013.9
20210422142814 27 346 16.0 20.0 0.00 0.00 0.00 68 1013.5
20210422142312 27 318 7.0 7.0 0.00 0.00 0.00 69 1013.5
20210422141810 27 0 4.0 5.0 0.00 0.00 0.00 68 1013.5
20210422141312 27 18 11.0 15.0 0.00 0.00 0.00 69 1013.2
20210422140812 27 335 4.0 5.0 0.00 0.00 0.00 69 1013.2
20210422140312 27 333 9.0 10.0 0.00 0.00 0.00 69 1013.2
20210422135916 27 351 15.0 20.0 0.00 0.00 0.00 69 1013.2
20210422135337 28 336 14.0 20.0 0.00 0.00 0.00 70 1013.2
20210422134913 28 12 3.0 3.0 0.00 0.00 0.00 70 1012.9
20210422134411 28 327 4.0 5.0 0.00 0.00 0.00 70 1012.9
20210422133910 28 323 10.0 12.0 0.00 0.00 0.00 70 1012.9
20210422133413 28 9 12.0 20.0 0.00 0.00 0.00 71 1012.9
20210422132915 28 332 5.0 10.0 0.00 0.00 0.00 71 1012.9
20210422132413 28 319 5.0 7.0 0.00 0.00 0.00 70 1012.5
20210422131946 28 333 11.0 15.0 0.00 0.00 0.00 70 1012.5
20210422131513 29 318 13.0 15.0 0.00 0.00 0.00 69 1012.2
20210422130914 29 346 9.0 12.0 0.00 0.00 0.00 69 1012.2
20210422130412 29 349 8.0 10.0 0.00 0.00 0.00 69 1012.2
20210422125911 29 330 11.0 15.0 0.00 0.00 0.00 69 1012.2
20210422125338 30 334 7.0 10.0 0.00 0.00 0.00 70 1011.9
20210422124839 30 274 11.0 15.0 0.00 0.00 0.00 70 1011.9
20210422124413 30 347 5.0 7.0 0.00 0.00 0.00 70 1011.9
20210422123915 30 357 6.0 10.0 0.00 0.00 0.00 70 1011.9
20210422123411 30 318 18.0 22.0 0.00 0.00 0.00 71 1011.5
20210422122915 30 335 9.0 12.0 0.00 0.00 0.00 71 1011.2
20210422122412 30 357 10.0 12.0 0.00 0.00 0.00 71 1011.5
20210422121913 30 327 7.0 10.0 0.00 0.00 0.00 72 1011.5
20210422121413 30 7 14.0 17.0 0.00 0.00 0.00 73 1011.2
20210422120911 30 331 12.0 17.0 0.00 0.00 0.00 74 1011.2
20210422120411 31 321 17.0 20.0 0.00 0.00 0.00 75 1011.5
20210422115946 31 345 13.0 15.0 0.00 0.00 0.00 76 1010.8
20210422115415 31 321 6.0 7.0 0.00 0.00 0.00 76 1010.8
20210422114914 31 301 9.0 12.0 0.00 0.00 0.00 76 1010.8
20210422114341 32 338 13.0 17.0 0.00 0.00 0.00 76 1010.5
20210422113911 32 300 10.0 12.0 0.00 0.00 0.00 76 1010.5
20210422113418 32 320 3.0 5.0 0.00 0.00 0.00 76 1010.5
20210422112840 32 322 10.0 15.0 0.00 0.00 0.00 76 1010.5
20210422112340 32 293 12.0 17.0 0.00 0.00 0.00 75 1010.2
20210422111841 33 314 11.0 15.0 0.00 0.00 0.00 75 1010.2
20210422111340 33 29 3.0 5.0 0.00 0.00 0.00 76 1009.8
20210422110839 33 264 7.0 10.0 0.00 0.00 0.00 75 1009.8
20210422110339 33 314 7.0 12.0 0.00 0.00 0.00 75 1009.8
20210422105836 33 337 9.0 17.0 0.00 0.00 0.00 75 1009.8
20210422105338 34 351 12.0 20.0 0.00 0.00 0.00 75 1009.5
20210422104841 34 321 6.0 7.0 0.00 0.00 0.00 75 1009.5
20210422104340 35 351 5.0 7.0 0.00 0.00 0.00 75 1009.5
20210422103838 36 7 8.0 12.0 0.00 0.00 0.00 74 1009.1
20210422103340 37 345 5.0 5.0 0.00 0.00 0.00 74 1008.8
20210422102816 38 341 16.0 25.0 0.00 0.00 0.00 73 1009.1
20210422102313 39 332 17.0 32.0 0.00 0.00 0.00 71 1008.8
20210422101811 39 317 6.0 7.0 0.00 0.00 0.00 69 1008.8
20210422101315 40 29 8.0 12.0 0.00 0.00 0.00 66 1008.5
20210422100811 40 332 3.0 5.0 0.00 0.00 0.00 65 1008.1
20210422100313 40 286 0.0 0.0 0.00 0.00 0.00 64 1008.1
20210422095817 40 356 2.0 5.0 0.00 0.00 0.00 64 1008.1
20210422095316 40 305 3.0 5.0 0.00 0.00 0.00 64 1008.1
20210422094818 40 313 5.0 7.0 0.00 0.00 0.00 64 1007.8
20210422094315 40 359 3.0 5.0 0.00 0.00 0.00 64 1007.8
20210422093813 40 334 3.0 5.0 0.00 0.00 0.00 64 1007.8
20210422093315 40 279 3.0 7.0 0.00 0.00 0.00 64 1007.8
20210422092809 40 319 5.0 5.0 0.00 0.00 0.00 64 1007.8
20210422092316 40 285 1.0 3.0 0.00 0.00 0.00 64 1008.1
20210422091814 41 13 3.0 3.0 0.00 0.00 0.00 64 1007.8
20210422091324 41 317 5.0 5.0 0.00 0.00 0.00 64 1007.8
20210422090839 41 340 5.0 7.0 0.00 0.00 0.00 63 1007.8
20210422090336 41 346 7.0 12.0 0.00 0.00 0.00 63 1007.8
20210422085840 41 321 5.0 7.0 0.00 0.00 0.00 63 1007.8
20210422085336 41 350 8.0 10.0 0.00 0.00 0.00 63 1007.8
20210422084911 41 5 4.0 7.0 0.00 0.00 0.00 63 1007.8
20210422084411 41 268 1.0 3.0 0.00 0.00 0.00 63 1007.8
20210422083939 41 312 0.0 3.0 0.00 0.00 0.00 63 1007.8
20210422083441 41 31 3.0 5.0 0.00 0.00 0.00 63 1007.8
20210422082942 42 20 6.0 7.0 0.00 0.00 0.00 63 1007.5
20210422082438 42 309 3.0 5.0 0.00 0.00 0.00 63 1007.8
20210422081937 42 3 6.0 10.0 0.00 0.00 0.00 63 1007.5
20210422081442 42 320 15.0 20.0 0.00 0.00 0.00 62 1007.5
20210422080940 42 45 4.0 5.0 0.00 0.00 0.00 62 1007.5
20210422080437 43 310 6.0 7.0 0.00 0.00 0.00 62 1007.5
20210422075940 43 329 7.0 7.0 0.00 0.00 0.00 62 1007.5
20210422075514 43 341 7.0 10.0 0.00 0.00 0.00 62 1007.5
20210422075016 44 228 7.0 10.0 0.00 0.00 0.00 62 1007.8
20210422074558 44 45 4.0 7.0 0.00 0.00 0.00 61 1007.8
20210422074015 44 26 3.0 5.0 0.00 0.00 0.00 61 1007.8
20210422073521 45 332 8.0 10.0 0.00 0.00 0.00 59 1007.8
20210422073016 45 222 0.0 3.0 0.00 0.00 0.00 57 1007.5
20210422072515 45 317 7.0 10.0 0.00 0.00 0.00 56 1007.5
20210422072043 46 1 6.0 10.0 0.00 0.00 0.00 55 1007.5
20210422071544 46 0 6.0 7.0 0.00 0.00 0.00 55 1007.5
20210422071012 46 346 4.0 7.0 0.00 0.00 0.00 54 1007.5
20210422070520 46 23 7.0 10.0 0.00 0.00 0.00 54 1007.5
20210422070024 46 310 8.0 10.0 0.00 0.00 0.00 53 1007.5
20210422065526 46 340 12.0 17.0 0.00 0.00 0.00 53 1007.1
20210422065016 46 337 13.0 17.0 0.00 0.00 0.00 52 1007.1
20210422064520 47 309 7.0 10.0 0.00 0.00 0.00 52 1007.1
20210422064021 47 38 1.0 3.0 0.00 0.00 0.00 51 1006.8
20210422063515 47 282 7.0 10.0 0.00 0.00 0.00 51 1006.8
20210422063015 47 340 0.0 3.0 0.00 0.00 0.00 51 1006.4
20210422062523 47 291 0.0 0.0 0.00 0.00 0.00 52 1006.4
20210422062014 47 5 10.0 12.0 0.00 0.00 0.00 51 1006.4
20210422061514 48 327 9.0 12.0 0.00 0.00 0.00 50 1006.4
20210422061012 48 323 9.0 12.0 0.00 0.00 0.00 50 1006.4
20210422060520 48 307 8.0 12.0 0.00 0.00 0.00 50 1006.4
20210422060015 48 332 3.0 5.0 0.00 0.00 0.00 50 1006.4
20210422055510 48 341 10.0 12.0 0.00 0.00 0.00 50 1006.1
20210422055016 48 346 3.0 10.0 0.00 0.00 0.00 50 1006.4
20210422054514 48 324 11.0 17.0 0.00 0.00 0.00 49 1006.4
20210422054013 48 8 10.0 12.0 0.00 0.00 0.00 49 1006.4
20210422053511 49 355 3.0 5.0 0.00 0.00 0.00 49 1006.4
20210422053017 49 338 9.0 10.0 0.00 0.00 0.00 48 1006.4
20210422052522 49 329 13.0 17.0 0.00 0.00 0.00 48 1006.4
20210422052014 49 329 8.0 10.0 0.00 0.00 0.00 47 1006.4
20210422051513 50 331 14.0 17.0 0.00 0.00 0.00 47 1006.4
20210422051014 50 344 7.0 10.0 0.00 0.00 0.00 47 1006.4
20210422050513 50 339 9.0 12.0 0.00 0.00 0.00 46 1006.1
20210422050115 51 319 12.0 12.0 0.00 0.00 0.00 45 1006.1
20210422045546 51 273 3.0 5.0 0.00 0.00 0.00 45 1006.1
20210422045101 51 335 11.0 15.0 0.00 0.00 0.00 44 1005.8
20210422044852 52 321 15.0 17.0 0.00 0.00 0.00 42 1005.8
20210422044012 52 320 18.0 25.0 0.00 0.00 0.00 41 1005.8
20210422043511 53 330 17.0 20.0 0.00 0.00 0.00 40 1005.8
20210422043012 53 323 8.0 10.0 0.00 0.00 0.00 39 1005.8
20210422042558 53 331 8.0 10.0 0.00 0.00 0.00 38 1005.4
20210422042014 54 351 18.0 28.0 0.00 0.00 0.00 36 1005.4
20210422041515 54 3 2.0 5.0 0.00 0.00 0.00 34 1005.4
20210422041015 54 279 8.0 10.0 0.00 0.00 0.00 32 1005.4
20210422040544 54 298 7.0 7.0 0.00 0.00 0.00 30 1004.7
20210422040036 54 337 3.0 5.0 0.00 0.00 0.00 30 1004.7
20210422035540 55 5 6.0 7.0 0.00 0.00 0.00 29 1004.7
20210422035035 55 286 11.0 12.0 0.00 0.00 0.00 28 1004.4
20210422034543 55 278 5.0 5.0 0.00 0.00 0.00 28 1004.4
20210422034118 55 279 4.0 5.0 0.00 0.00 0.00 28 1004.4
20210422033616 55 331 5.0 7.0 0.00 0.00 0.00 27 1004.4
20210422033156 55 259 9.0 12.0 0.00 0.00 0.00 26 1004.4
20210422032616 55 317 12.0 15.0 0.00 0.00 0.00 25 1004.4
20210422032115 55 322 6.0 10.0 0.00 0.00 0.00 24 1004.1
20210422031613 55 312 7.0 10.0 0.00 0.00 0.00 24 1004.1
20210422031112 55 270 6.0 7.0 0.00 0.00 0.00 23 1004.1
20210422030613 55 302 11.0 12.0 0.00 0.00 0.00 23 1003.7
20210422030111 56 322 12.0 15.0 0.00 0.00 0.00 23 1004.1
20210422025612 56 335 8.0 10.0 0.00 0.00 0.00 23 1003.7
20210422025114 56 243 11.0 12.0 0.00 0.00 0.00 23 1003.7
20210422024647 56 291 8.0 10.0 0.00 0.00 0.00 23 1003.7
20210422024153 57 289 7.0 10.0 0.00 0.00 0.00 22 1003.7
20210422023613 57 317 7.0 7.0 0.00 0.00 0.00 22 1003.4
20210422023141 57 299 8.0 10.0 0.00 0.00 0.00 22 1003.7
20210422022638 58 282 7.0 7.0 0.00 0.00 0.00 21 1003.7
20210422022135 58 285 5.0 7.0 0.00 0.00 0.00 21 1003.4
20210422021637 58 248 4.0 5.0 0.00 0.00 0.00 21 1003.4
20210422021137 59 221 8.0 10.0 0.00 0.00 0.00 20 1003.7
20210422020638 59 304 8.0 10.0 0.00 0.00 0.00 20 1003.4
20210422020136 60 270 12.0 15.0 0.00 0.00 0.00 20 1003.7
20210422015615 60 298 9.0 10.0 0.00 0.00 0.00 19 1003.7
20210422015141 61 271 7.0 10.0 0.00 0.00 0.00 19 1003.4
20210422014641 61 271 7.0 10.0 0.00 0.00 0.00 18 1003.4
20210422014214 62 300 8.0 10.0 0.00 0.00 0.00 18 1003.7
20210422013719 62 290 11.0 12.0 0.00 0.00 0.00 18 1003.7
20210422013216 62 323 14.0 17.0 0.00 0.00 0.00 17 1003.7
20210422012714 63 279 17.0 20.0 0.00 0.00 0.00 17 1003.7
20210422012300 63 297 11.0 12.0 0.00 0.00 0.00 17 1003.4
20210422011642 63 284 8.0 12.0 0.00 0.00 0.00 17 1003.4
20210422011210 64 284 10.0 15.0 0.00 0.00 0.00 16 1003.4
20210422010711 64 319 5.0 7.0 0.00 0.00 0.00 16 1003.7
20210422010215 64 269 4.0 5.0 0.00 0.00 0.00 16 1003.7
20210422005713 64 303 13.0 17.0 0.00 0.00 0.00 16 1003.7
20210422005213 65 265 7.0 10.0 0.00 0.00 0.00 15 1003.7
20210422004713 65 327 7.0 7.0 0.00 0.00 0.00 15 1003.7
20210422004214 65 254 8.0 12.0 0.00 0.00 0.00 15 1003.7
20210422003720 65 286 4.0 5.0 0.00 0.00 0.00 16 1003.7
20210422003300 66 294 7.0 7.0 0.00 0.00 0.00 16 1003.7
20210422002714 66 299 6.0 7.0 0.00 0.00 0.00 15 1003.7
20210422002210 66 236 5.0 7.0 0.00 0.00 0.00 15 1003.7
20210422001714 66 308 9.0 10.0 0.00 0.00 0.00 15 1003.7
20210422001140 66 272 3.0 5.0 0.00 0.00 0.00 16 1003.7
20210422000759 66 286 8.0 10.0 0.00 0.00 0.00 15 1004.1
20210422000214 66 284 5.0 5.0 0.00 0.00 0.00 15 1004.1
20210421235441 66 277 7.0 10.0 0.00 0.00 0.00 16 1004.1
20210421234914 66 250 7.0 7.0 0.00 0.00 0.00 15 1003.7